createdAt,value
2023-04-02T00:01:02.318Z,0.67
2023-04-02T00:03:59.701Z,0.70
2023-04-02T00:06:30.269Z,0.90
2023-04-02T00:09:04.303Z,0.70
2023-04-02T00:11:37.379Z,0.60
2023-04-02T00:14:05.516Z,0.80
2023-04-02T00:16:32.383Z,0.60
2023-04-02T00:19:01.900Z,0.70
2023-04-02T00:21:31.250Z,0.80
2023-04-02T00:24:00.438Z,0.60
2023-04-02T00:26:36.582Z,0.60
2023-04-02T00:29:05.488Z,0.63
2023-04-02T00:31:33.344Z,0.57
2023-04-02T00:34:01.866Z,0.73
2023-04-02T00:36:33.942Z,0.90
2023-04-02T00:39:02.589Z,0.60
2023-04-02T00:41:31.475Z,0.90
2023-04-02T00:43:59.616Z,0.70
2023-04-02T00:46:32.147Z,0.90
2023-04-02T00:49:11.089Z,0.60
2023-04-02T00:51:46.066Z,0.70
2023-04-02T00:54:16.596Z,0.67
2023-04-02T00:56:45.281Z,0.63
2023-04-02T00:59:20.924Z,0.53
2023-04-02T01:01:54.243Z,0.87
2023-04-02T01:04:36.561Z,0.70
2023-04-02T01:07:06.683Z,0.60
2023-04-02T01:09:45.330Z,0.57
2023-04-02T01:12:24.779Z,0.90
2023-04-02T01:15:06.917Z,0.63
2023-04-02T01:17:48.644Z,0.60
2023-04-02T01:20:30.944Z,0.70
2023-04-02T01:23:05.658Z,0.60
2023-04-02T01:25:45.663Z,0.80
2023-04-02T01:28:35.380Z,0.93
2023-04-02T01:31:02.541Z,0.50
2023-04-02T01:33:32.804Z,0.97
2023-04-02T01:36:21.077Z,0.57
2023-04-02T01:39:04.579Z,0.47
2023-04-02T01:41:48.680Z,0.93
2023-04-02T01:44:21.489Z,0.67
2023-04-02T01:46:48.789Z,0.40
2023-04-02T01:49:19.148Z,0.63
2023-04-02T01:51:51.557Z,0.63
2023-04-02T01:54:20.614Z,0.70
2023-04-02T01:56:47.707Z,0.70
2023-04-02T01:59:17.169Z,0.60
2023-04-02T02:01:58.358Z,0.90
2023-04-02T02:04:25.355Z,0.70
2023-04-02T02:06:51.936Z,0.70
2023-04-02T02:09:24.165Z,0.80
2023-04-02T02:11:51.341Z,0.77
2023-04-02T02:14:20.628Z,0.77
2023-04-02T02:16:47.603Z,0.70
2023-04-02T02:19:27.107Z,1.07
2023-04-02T02:21:56.284Z,0.97
2023-04-02T02:24:30.770Z,0.97
2023-04-02T02:27:21.473Z,0.83
2023-04-02T02:29:58.590Z,0.60
2023-04-02T02:32:30.147Z,0.57
2023-04-02T02:35:27.284Z,0.40
2023-04-02T02:38:23.185Z,0.70
2023-04-02T02:40:53.495Z,0.50
2023-04-02T02:43:20.340Z,0.60
2023-04-02T02:45:47.606Z,0.73
2023-04-02T02:48:18.780Z,0.73
2023-04-02T02:50:45.745Z,0.80
2023-04-02T02:53:20.823Z,0.70
2023-04-02T02:55:51.077Z,0.50
2023-04-02T02:58:27.323Z,0.70
2023-04-02T03:01:02.967Z,0.60
2023-04-02T03:03:32.574Z,0.70
2023-04-02T03:06:04.120Z,0.40
2023-04-02T03:08:38.367Z,0.60
2023-04-02T03:11:29.888Z,0.60
2023-04-02T03:14:03.740Z,0.80
2023-04-02T03:16:46.129Z,0.70
2023-04-02T03:19:29.518Z,0.70
2023-04-02T03:22:03.000Z,0.67
2023-04-02T03:24:38.423Z,0.77
2023-04-02T03:27:17.192Z,0.70
2023-04-02T03:29:52.865Z,0.67
2023-04-02T03:32:26.980Z,0.50
2023-04-02T03:35:03.420Z,0.60
2023-04-02T03:37:35.016Z,0.83
2023-04-02T03:40:15.788Z,0.80
2023-04-02T03:42:51.292Z,0.70
2023-04-02T03:45:23.057Z,0.60
2023-04-02T03:47:55.783Z,0.90
2023-04-02T03:50:31.730Z,0.60
2023-04-02T03:53:01.822Z,0.80
2023-04-02T03:55:30.991Z,0.90
2023-04-02T03:58:22.116Z,0.80
2023-04-02T04:00:53.345Z,0.70
2023-04-02T04:04:00.406Z,0.60
2023-04-02T04:06:29.309Z,0.80
2023-04-02T04:09:02.099Z,0.73
2023-04-02T04:11:33.479Z,0.90
2023-04-02T04:14:19.191Z,1.13
2023-04-02T04:16:57.189Z,0.80
2023-04-02T04:19:30.073Z,0.93
2023-04-02T04:22:30.064Z,1.33
2023-04-02T04:25:05.258Z,0.77
2023-04-02T04:27:44.019Z,0.70
2023-04-02T04:30:18.286Z,0.80
2023-04-02T04:32:58.248Z,0.50
2023-04-02T04:35:31.234Z,0.83
2023-04-02T04:38:15.602Z,1.23
2023-04-02T04:40:50.268Z,0.67
2023-04-02T04:43:19.722Z,0.90
2023-04-02T04:46:13.855Z,0.80
2023-04-02T04:48:50.076Z,0.80
2023-04-02T04:51:24.376Z,1.00
2023-04-02T04:53:53.326Z,0.90
2023-04-02T04:56:26.106Z,0.60
2023-04-02T04:59:27.757Z,0.70
2023-04-02T05:02:05.935Z,0.60
2023-04-02T05:04:36.190Z,0.80
2023-04-02T05:07:17.749Z,0.70
2023-04-02T05:09:57.060Z,0.70
2023-04-02T05:12:46.411Z,0.57
2023-04-02T05:15:17.021Z,0.57
2023-04-02T05:17:46.449Z,0.90
2023-04-02T05:20:18.131Z,0.50
2023-04-02T05:23:03.798Z,0.90
2023-04-02T05:25:31.812Z,0.70
2023-04-02T05:28:04.371Z,0.60
2023-04-02T05:30:46.672Z,0.57
2023-04-02T05:33:18.043Z,0.77
2023-04-02T05:35:47.427Z,0.80
2023-04-02T05:38:23.176Z,0.60
2023-04-02T05:40:59.712Z,0.63
2023-04-02T05:43:26.710Z,0.60
2023-04-02T05:45:57.418Z,0.67
2023-04-02T05:48:31.870Z,0.53
2023-04-02T05:50:59.554Z,1.03
2023-04-02T05:53:38.218Z,0.87
2023-04-02T05:56:16.658Z,0.63
2023-04-02T05:58:54.878Z,1.20
2023-04-02T06:01:50.978Z,0.63
2023-04-02T06:04:42.026Z,1.23
2023-04-02T06:07:19.905Z,0.87
2023-04-02T06:09:54.448Z,0.90
2023-04-02T06:12:38.164Z,1.20
2023-04-02T06:15:10.936Z,1.20
2023-04-02T06:18:13.045Z,1.03
2023-04-02T06:20:41.096Z,1.53
2023-04-02T06:23:13.852Z,0.97
2023-04-02T06:25:43.758Z,1.13
2023-04-02T06:28:16.072Z,1.13
2023-04-02T06:30:52.650Z,0.93
2023-04-02T06:33:20.416Z,1.30
2023-04-02T06:35:50.975Z,1.57
2023-04-02T06:38:27.293Z,1.83
2023-04-02T06:40:59.681Z,1.00
2023-04-02T06:43:42.348Z,1.27
2023-04-02T06:46:39.067Z,0.83
2023-04-02T06:49:35.703Z,2.60
2023-04-02T06:52:12.579Z,1.70
2023-04-02T06:54:39.144Z,1.60
2023-04-02T06:57:09.383Z,1.43
2023-04-02T06:59:41.696Z,1.17
2023-04-02T07:02:28.344Z,1.43
2023-04-02T07:05:00.912Z,0.93
2023-04-02T07:07:28.195Z,1.57
2023-04-02T07:09:55.453Z,1.00
2023-04-02T07:12:24.857Z,1.37
2023-04-02T07:14:52.488Z,1.00
2023-04-02T07:17:21.264Z,1.20
2023-04-02T07:19:50.879Z,1.03
2023-04-02T07:22:19.593Z,1.10
2023-04-02T07:24:49.766Z,1.10
2023-04-02T07:27:16.656Z,1.10
2023-04-02T07:29:43.253Z,1.20
2023-04-02T07:32:11.374Z,1.10
2023-04-02T07:34:38.585Z,1.20
2023-04-02T07:37:05.301Z,1.00
2023-04-02T07:39:31.791Z,1.00
2023-04-02T07:42:00.508Z,1.03
2023-04-02T07:44:27.954Z,1.00
2023-04-02T07:46:54.675Z,1.33
2023-04-02T07:49:21.482Z,1.30
2023-04-02T07:51:48.080Z,0.90
2023-04-02T07:54:14.533Z,1.17
2023-04-02T07:56:41.169Z,0.90
2023-04-02T07:59:07.817Z,1.07
2023-04-02T08:01:35.274Z,1.10
2023-04-02T08:04:03.547Z,1.20
2023-04-02T08:06:30.305Z,1.13
2023-04-02T08:08:57.972Z,1.50
2023-04-02T08:11:24.654Z,1.00
2023-04-02T08:13:52.038Z,0.90
2023-04-02T08:16:18.636Z,1.27
2023-04-02T08:18:47.466Z,1.40
2023-04-02T08:21:16.373Z,1.20
2023-04-02T08:23:43.496Z,0.80
2023-04-02T08:26:10.059Z,1.17
2023-04-02T08:28:36.559Z,1.27
2023-04-02T08:31:04.683Z,1.10
2023-04-02T08:33:31.501Z,1.40
2023-04-02T08:35:58.172Z,1.40
2023-04-02T08:38:25.321Z,1.80
2023-04-02T08:40:56.905Z,1.30
2023-04-02T08:43:55.004Z,1.10
2023-04-02T08:46:33.849Z,1.20
2023-04-02T08:49:03.603Z,1.20
2023-04-02T08:51:36.712Z,1.40
2023-04-02T08:54:31.161Z,1.73
2023-04-02T08:57:14.570Z,0.87
2023-04-02T08:59:43.408Z,1.23
2023-04-02T09:02:22.833Z,1.37
2023-04-02T09:04:49.609Z,1.40
2023-04-02T09:07:17.338Z,1.70
2023-04-02T09:09:48.461Z,1.20
2023-04-02T09:12:18.694Z,1.63
2023-04-02T09:15:07.243Z,1.13
2023-04-02T09:17:42.635Z,1.27
2023-04-02T09:20:21.360Z,1.30
2023-04-02T09:22:51.270Z,1.23
2023-04-02T09:25:21.496Z,1.03
2023-04-02T09:27:50.022Z,1.03
2023-04-02T09:30:29.650Z,1.00
2023-04-02T09:33:07.473Z,1.17
2023-04-02T09:35:36.624Z,0.70
2023-04-02T09:38:19.942Z,1.00
2023-04-02T09:40:52.174Z,1.20
2023-04-02T09:43:24.206Z,0.80
2023-04-02T09:46:04.017Z,1.30
2023-04-02T09:48:43.764Z,1.33
2023-04-02T09:51:16.400Z,1.47
2023-04-02T09:53:49.048Z,1.27
2023-04-02T09:56:26.454Z,1.40
2023-04-02T09:59:16.154Z,1.20
2023-04-02T10:01:47.779Z,1.13
2023-04-02T10:04:45.420Z,2.13
2023-04-02T10:07:35.458Z,1.40
2023-04-02T10:10:25.245Z,1.50
2023-04-02T10:13:27.077Z,0.90
2023-04-02T10:15:58.687Z,1.50
2023-04-02T10:18:43.229Z,1.53
2023-04-02T10:21:12.814Z,1.60
2023-04-02T10:23:39.744Z,1.70
2023-04-02T10:26:31.688Z,2.10
2023-04-02T10:29:28.273Z,1.77
2023-04-02T10:32:06.677Z,1.63
2023-04-02T10:34:56.769Z,1.50
2023-04-02T10:37:41.880Z,1.97
2023-04-02T10:40:14.365Z,1.53
2023-04-02T10:42:56.368Z,1.40
2023-04-02T10:45:41.375Z,1.40
2023-04-02T10:48:13.464Z,1.40
2023-04-02T10:50:58.992Z,1.60
2023-04-02T10:53:34.873Z,1.83
2023-04-02T10:56:05.483Z,1.47
2023-04-02T10:58:34.338Z,1.90
2023-04-02T11:01:16.964Z,1.20
2023-04-02T11:03:47.607Z,1.50
2023-04-02T11:06:47.302Z,1.77
2023-04-02T11:09:22.283Z,1.80
2023-04-02T11:11:51.869Z,1.70
2023-04-02T11:14:24.508Z,2.20
2023-04-02T11:16:52.548Z,1.87
2023-04-02T11:19:18.916Z,2.40
2023-04-02T11:21:58.792Z,1.77
2023-04-02T11:24:30.184Z,1.80
2023-04-02T11:27:11.815Z,1.60
2023-04-02T11:29:40.756Z,1.63
2023-04-02T11:32:23.927Z,1.50
2023-04-02T11:34:59.808Z,1.70
2023-04-02T11:37:36.465Z,1.60
2023-04-02T11:40:12.075Z,1.87
2023-04-02T11:42:40.504Z,1.50
2023-04-02T11:45:22.167Z,2.30
2023-04-02T11:48:07.961Z,1.57
2023-04-02T11:50:39.878Z,1.30
2023-04-02T11:53:12.346Z,1.40
2023-04-02T11:55:39.963Z,1.30
2023-04-02T11:58:30.790Z,1.40
2023-04-02T12:01:14.777Z,1.67
2023-04-02T12:04:34.199Z,1.63
2023-04-02T12:07:22.190Z,1.77
2023-04-02T12:09:52.454Z,1.60
2023-04-02T12:12:29.455Z,1.27
2023-04-02T12:14:57.793Z,1.60
2023-04-02T12:17:38.477Z,1.97
2023-04-02T12:20:21.730Z,1.83
2023-04-02T12:22:53.592Z,1.90
2023-04-02T12:25:29.985Z,1.83
2023-04-02T12:28:18.539Z,1.90
2023-04-02T12:30:46.834Z,1.90
2023-04-02T12:33:22.007Z,1.70
2023-04-02T12:35:50.996Z,1.50
2023-04-02T12:38:22.336Z,1.63
2023-04-02T12:40:59.007Z,1.40
2023-04-02T12:43:30.453Z,1.97
2023-04-02T12:46:08.011Z,1.53
2023-04-02T12:48:35.437Z,1.47
2023-04-02T12:51:03.103Z,0.30
2023-04-02T12:53:35.796Z,0.40
2023-04-02T12:56:03.066Z,0.50
2023-04-02T12:58:33.181Z,0.60
2023-04-02T13:01:14.912Z,0.47
2023-04-02T13:03:41.820Z,0.50
2023-04-02T13:06:23.426Z,0.60
2023-04-02T13:08:50.835Z,1.00
2023-04-02T13:11:17.420Z,0.83
2023-04-02T13:13:45.997Z,0.80
2023-04-02T13:16:15.432Z,0.40
2023-04-02T13:18:43.620Z,1.03
2023-04-02T13:21:16.224Z,0.80
2023-04-02T13:23:43.877Z,0.87
2023-04-02T13:26:16.934Z,0.70
2023-04-02T13:28:56.559Z,0.70
2023-04-02T13:31:23.054Z,0.80
2023-04-02T13:33:49.552Z,0.60
2023-04-02T13:36:16.063Z,0.73
2023-04-02T13:38:42.540Z,0.80
2023-04-02T13:41:22.374Z,0.80
2023-04-02T13:43:50.288Z,0.70
2023-04-02T13:46:21.958Z,0.87
2023-04-02T13:48:49.926Z,0.83
2023-04-02T13:51:21.716Z,0.73
2023-04-02T13:53:51.439Z,0.70
2023-04-02T13:56:19.391Z,0.70
2023-04-02T13:58:46.516Z,0.87
2023-04-02T14:01:14.306Z,0.80
2023-04-02T14:03:41.389Z,0.63
2023-04-02T14:06:40.983Z,1.00
2023-04-02T14:09:14.932Z,1.27
2023-04-02T14:12:09.190Z,0.97
2023-04-02T14:14:52.285Z,0.97
2023-04-02T14:17:29.087Z,1.23
2023-04-02T14:20:16.293Z,1.40
2023-04-02T14:22:42.735Z,1.40
2023-04-02T14:25:49.660Z,1.33
2023-04-02T14:28:29.792Z,1.50
2023-04-02T14:31:02.276Z,1.83
2023-04-02T14:33:34.111Z,1.90
2023-04-02T14:36:26.669Z,1.83
2023-04-02T14:39:04.286Z,1.80
2023-04-02T14:41:39.996Z,2.87
2023-04-02T14:44:07.498Z,2.40
2023-04-02T14:46:37.616Z,2.23
2023-04-02T14:49:16.837Z,2.27
2023-04-02T14:51:45.813Z,2.67
2023-04-02T14:54:18.041Z,2.60
2023-04-02T14:56:51.055Z,2.53
2023-04-02T14:59:32.495Z,2.60
2023-04-02T15:02:22.135Z,2.50
2023-04-02T15:04:59.520Z,3.17
2023-04-02T15:07:34.676Z,2.70
2023-04-02T15:10:22.083Z,3.20
2023-04-02T15:12:48.992Z,2.70
2023-04-02T15:15:40.802Z,2.67
2023-04-02T15:18:16.221Z,2.20
2023-04-02T15:20:47.201Z,3.17
2023-04-02T15:23:36.710Z,2.93
2023-04-02T15:26:41.662Z,2.93
2023-04-02T15:29:32.500Z,3.03
2023-04-02T15:32:06.800Z,3.37
2023-04-02T15:34:43.491Z,2.83
2023-04-02T15:37:43.541Z,3.20
2023-04-02T15:40:43.732Z,3.40
2023-04-02T15:43:20.957Z,3.50
2023-04-02T15:46:11.948Z,2.90
2023-04-02T15:48:43.786Z,2.83
2023-04-02T15:51:10.409Z,3.10
2023-04-02T15:54:03.973Z,3.23
2023-04-02T15:56:30.738Z,3.37
2023-04-02T15:58:57.176Z,3.07
2023-04-02T16:01:32.339Z,2.73
2023-04-02T16:04:29.950Z,2.77
2023-04-02T16:06:59.362Z,2.80
2023-04-02T16:09:37.659Z,2.90
2023-04-02T16:12:18.682Z,2.90
2023-04-02T16:14:47.275Z,3.90
2023-04-02T16:17:24.767Z,3.27
2023-04-02T16:19:56.667Z,3.33
2023-04-02T16:22:27.029Z,3.00
2023-04-02T16:25:01.018Z,3.07
2023-04-02T16:27:40.927Z,3.40
2023-04-02T16:30:30.912Z,3.30
2023-04-02T16:33:15.023Z,3.57
2023-04-02T16:36:06.647Z,2.63
2023-04-02T16:39:07.839Z,3.13
2023-04-02T16:41:44.276Z,3.30
2023-04-02T16:44:26.431Z,3.50
2023-04-02T16:47:11.744Z,3.50
2023-04-02T16:49:49.906Z,3.67
2023-04-02T16:52:36.826Z,3.60
2023-04-02T16:55:12.319Z,3.93
2023-04-02T16:58:06.878Z,3.47
2023-04-02T17:00:38.298Z,4.27
2023-04-02T17:03:26.266Z,3.63
2023-04-02T17:06:06.036Z,3.40
2023-04-02T17:08:54.346Z,2.93
2023-04-02T17:11:24.543Z,3.93
2023-04-02T17:14:06.098Z,3.50
2023-04-02T17:16:37.306Z,3.90
2023-04-02T17:19:09.653Z,3.40
2023-04-02T17:21:38.055Z,4.13
2023-04-02T17:24:14.204Z,3.83
2023-04-02T17:26:43.295Z,3.30
2023-04-02T17:29:15.244Z,3.43
2023-04-02T17:31:42.958Z,4.10
2023-04-02T17:34:13.301Z,3.10
2023-04-02T17:36:51.945Z,4.40
2023-04-02T17:39:39.202Z,3.13
2023-04-02T17:42:17.837Z,3.10
2023-04-02T17:44:59.821Z,3.40
2023-04-02T17:47:44.570Z,3.53
2023-04-02T17:50:39.207Z,3.50
2023-04-02T17:53:11.584Z,3.10
2023-04-02T17:55:47.688Z,3.30
2023-04-02T17:58:27.901Z,3.00
2023-04-02T18:01:12.746Z,3.70
2023-04-02T18:03:58.261Z,3.73
2023-04-02T18:06:32.185Z,3.63
2023-04-02T18:09:09.279Z,4.37
2023-04-02T18:11:56.537Z,3.20
2023-04-02T18:14:43.027Z,3.30
2023-04-02T18:17:19.540Z,3.67
2023-04-02T18:20:27.849Z,3.10
2023-04-02T18:23:25.581Z,3.50
2023-04-02T18:26:12.022Z,3.53
2023-04-02T18:29:07.326Z,3.30
2023-04-02T18:31:42.515Z,3.43
2023-04-02T18:34:15.006Z,3.10
2023-04-02T18:37:00.210Z,2.97
2023-04-02T18:39:35.675Z,3.70
2023-04-02T18:42:36.868Z,3.90
2023-04-02T18:45:15.004Z,3.90
2023-04-02T18:47:52.888Z,3.40
2023-04-02T18:50:28.994Z,4.47
2023-04-02T18:52:55.567Z,4.03
2023-04-02T18:55:26.809Z,2.97
2023-04-02T18:57:59.272Z,3.00
2023-04-02T19:00:32.186Z,2.70
2023-04-02T19:03:35.833Z,3.30
2023-04-02T19:06:22.304Z,3.20
2023-04-02T19:08:54.106Z,3.50
2023-04-02T19:11:31.311Z,3.70
2023-04-02T19:14:02.596Z,3.60
2023-04-02T19:16:44.582Z,4.10
2023-04-02T19:19:26.276Z,3.83
2023-04-02T19:21:55.696Z,3.93
2023-04-02T19:25:01.417Z,3.90
2023-04-02T19:27:33.797Z,3.90
2023-04-02T19:30:06.464Z,3.23
2023-04-02T19:32:48.229Z,3.47
2023-04-02T19:35:40.145Z,4.03
2023-04-02T19:38:19.247Z,3.20
2023-04-02T19:41:02.160Z,3.90
2023-04-02T19:43:29.186Z,3.93
2023-04-02T19:45:56.138Z,3.80
2023-04-02T19:48:26.591Z,4.13
2023-04-02T19:50:53.571Z,3.50
2023-04-02T19:53:20.114Z,3.97
2023-04-02T19:55:46.664Z,3.93
2023-04-02T19:58:28.575Z,3.60
2023-04-02T20:00:55.821Z,3.30
2023-04-02T20:03:22.408Z,3.30
2023-04-02T20:05:49.115Z,4.70
2023-04-02T20:08:15.755Z,3.53
2023-04-02T20:10:42.654Z,3.50
2023-04-02T20:13:09.353Z,3.50
2023-04-02T20:15:36.680Z,3.50
2023-04-02T20:18:04.530Z,3.00
2023-04-02T20:20:31.297Z,2.90
2023-04-02T20:22:57.803Z,3.30
2023-04-02T20:25:24.245Z,2.80
2023-04-02T20:27:51.042Z,2.93
2023-04-02T20:30:17.677Z,3.27
2023-04-02T20:32:44.234Z,3.30
2023-04-02T20:35:10.841Z,2.90
2023-04-02T20:37:37.382Z,3.00
2023-04-02T20:40:04.701Z,3.33
2023-04-02T20:42:31.183Z,3.00
2023-04-02T20:44:57.835Z,2.70
2023-04-02T20:47:24.991Z,2.57
2023-04-02T20:49:52.155Z,2.80
2023-04-02T20:52:18.606Z,3.60
2023-04-02T20:54:45.111Z,2.87
2023-04-02T20:57:11.650Z,3.50
2023-04-02T20:59:38.259Z,2.90
2023-04-02T21:02:04.768Z,3.07
2023-04-02T21:04:31.364Z,3.40
2023-04-02T21:06:57.959Z,2.80
2023-04-02T21:09:24.632Z,3.03
2023-04-02T21:11:51.189Z,3.20
2023-04-02T21:14:18.189Z,2.60
2023-04-02T21:16:45.615Z,3.00
2023-04-02T21:19:12.141Z,2.90
2023-04-02T21:21:39.592Z,3.20
2023-04-02T21:24:08.187Z,3.23
2023-04-02T21:26:40.504Z,2.70
2023-04-02T21:29:07.505Z,2.97
2023-04-02T21:31:36.459Z,3.53
2023-04-02T21:34:04.193Z,3.20
2023-04-02T21:36:33.949Z,3.03
2023-04-02T21:39:03.519Z,3.63
2023-04-02T21:41:32.773Z,2.83
2023-04-02T21:44:00.949Z,3.47
2023-04-02T21:46:29.308Z,3.20
2023-04-02T21:48:57.683Z,2.90
2023-04-02T21:51:27.447Z,3.23
2023-04-02T21:53:54.429Z,2.90
2023-04-02T21:56:26.481Z,3.53
2023-04-02T21:58:53.742Z,3.20
2023-04-02T22:01:27.335Z,3.10
2023-04-02T22:03:58.944Z,3.40
2023-04-02T22:06:27.155Z,3.13
2023-04-02T22:08:56.224Z,3.47
2023-04-02T22:11:27.194Z,3.13
2023-04-02T22:13:54.904Z,3.20
2023-04-02T22:16:24.114Z,3.50
2023-04-02T22:18:54.597Z,2.90
2023-04-02T22:21:21.424Z,3.27
2023-04-02T22:23:48.817Z,3.00
2023-04-02T22:26:16.213Z,2.80
2023-04-02T22:28:42.988Z,2.80
2023-04-02T22:31:13.865Z,2.90
2023-04-02T22:33:41.271Z,2.83
2023-04-02T22:36:08.601Z,2.50
2023-04-02T22:38:35.447Z,3.00
2023-04-02T22:41:10.458Z,2.63
2023-04-02T22:43:37.407Z,2.50
2023-04-02T22:46:05.329Z,2.80
2023-04-02T22:48:32.000Z,2.37
2023-04-02T22:50:58.717Z,2.70
2023-04-02T22:53:25.496Z,2.37
2023-04-02T22:55:52.771Z,2.60
2023-04-02T22:58:20.836Z,2.87
2023-04-02T23:00:47.472Z,2.97
2023-04-02T23:03:14.434Z,2.33
2023-04-02T23:05:42.414Z,2.90
2023-04-02T23:08:09.354Z,2.70
2023-04-02T23:10:36.577Z,2.43
2023-04-02T23:13:03.892Z,2.77
2023-04-02T23:15:30.584Z,2.60
2023-04-02T23:17:57.269Z,2.60
2023-04-02T23:20:23.968Z,2.67
2023-04-02T23:22:50.833Z,2.90
2023-04-02T23:25:17.693Z,2.40
2023-04-02T23:27:44.196Z,2.33
2023-04-02T23:30:11.027Z,3.30
2023-04-02T23:32:37.566Z,2.47
2023-04-02T23:35:04.338Z,4.33
2023-04-02T23:37:31.400Z,2.33
2023-04-02T23:39:58.093Z,2.40
2023-04-02T23:42:26.530Z,2.30
2023-04-02T23:44:53.945Z,2.03
2023-04-02T23:47:20.824Z,2.20
2023-04-02T23:49:47.879Z,2.67
2023-04-02T23:52:15.499Z,2.17
2023-04-02T23:54:42.140Z,2.33
2023-04-02T23:57:08.839Z,2.00
2023-04-02T23:59:35.605Z,2.10
